sensor_id;sensor_type;location;lat;lon;timestamp;temperature;humidity
52615;DHT22;38508;53.158;6.614;2022-12-24T00:02:10;9.40;99.90
52615;DHT22;38508;53.158;6.614;2022-12-24T00:04:36;9.40;99.90
52615;DHT22;38508;53.158;6.614;2022-12-24T00:07:02;9.50;99.90
52615;DHT22;38508;53.158;6.614;2022-12-24T00:09:28;9.50;99.90
52615;DHT22;38508;53.158;6.614;2022-12-24T00:11:54;9.50;99.90
52615;DHT22;38508;53.158;6.614;2022-12-24T00:14:20;9.40;99.90
52615;DHT22;38508;53.158;6.614;2022-12-24T00:16:45;9.50;99.90
52615;DHT22;38508;53.158;6.614;2022-12-24T00:19:11;9.50;99.90
52615;DHT22;38508;53.158;6.614;2022-12-24T00:21:37;9.60;99.90
52615;DHT22;38508;53.158;6.614;2022-12-24T00:24:03;9.50;99.90
52615;DHT22;38508;53.158;6.614;2022-12-24T00:26:33;9.50;99.90
52615;DHT22;38508;53.158;6.614;2022-12-24T00:28:59;9.60;99.90
52615;DHT22;38508;53.158;6.614;2022-12-24T00:31:26;9.70;99.90
52615;DHT22;38508;53.158;6.614;2022-12-24T00:33:51;9.60;99.90
52615;DHT22;38508;53.158;6.614;2022-12-24T00:36:18;9.60;99.90
52615;DHT22;38508;53.158;6.614;2022-12-24T00:38:44;9.50;99.90
52615;DHT22;38508;53.158;6.614;2022-12-24T00:41:11;9.50;99.90
52615;DHT22;38508;53.158;6.614;2022-12-24T00:43:54;9.50;99.90
52615;DHT22;38508;53.158;6.614;2022-12-24T00:46:20;9.60;99.90
52615;DHT22;38508;53.158;6.614;2022-12-24T00:48:47;9.60;99.90
52615;DHT22;38508;53.158;6.614;2022-12-24T00:51:12;9.60;99.90
52615;DHT22;38508;53.158;6.614;2022-12-24T00:53:38;9.60;99.90
52615;DHT22;38508;53.158;6.614;2022-12-24T00:56:05;9.50;99.90
52615;DHT22;38508;53.158;6.614;2022-12-24T00:58:31;9.60;99.90
52615;DHT22;38508;53.158;6.614;2022-12-24T01:00:56;9.40;99.90
52615;DHT22;38508;53.158;6.614;2022-12-24T01:03:22;9.40;99.90
52615;DHT22;38508;53.158;6.614;2022-12-24T01:05:47;9.40;99.90
52615;DHT22;38508;53.158;6.614;2022-12-24T01:08:15;9.30;99.90
52615;DHT22;38508;53.158;6.614;2022-12-24T01:10:41;9.40;99.90
52615;DHT22;38508;53.158;6.614;2022-12-24T01:13:06;9.40;99.90
52615;DHT22;38508;53.158;6.614;2022-12-24T01:15:32;9.50;99.90
52615;DHT22;38508;53.158;6.614;2022-12-24T01:17:58;9.50;99.90
52615;DHT22;38508;53.158;6.614;2022-12-24T01:20:23;9.50;99.90
52615;DHT22;38508;53.158;6.614;2022-12-24T01:22:51;9.50;99.90
52615;DHT22;38508;53.158;6.614;2022-12-24T01:25:17;9.50;99.90
52615;DHT22;38508;53.158;6.614;2022-12-24T01:27:42;9.50;99.90
52615;DHT22;38508;53.158;6.614;2022-12-24T01:30:12;9.40;99.90
52615;DHT22;38508;53.158;6.614;2022-12-24T01:32:38;9.50;99.90
52615;DHT22;38508;53.158;6.614;2022-12-24T01:35:04;9.50;99.90
52615;DHT22;38508;53.158;6.614;2022-12-24T01:37:30;9.50;99.90
52615;DHT22;38508;53.158;6.614;2022-12-24T01:39:56;9.50;99.90
52615;DHT22;38508;53.158;6.614;2022-12-24T01:42:46;9.40;99.90
52615;DHT22;38508;53.158;6.614;2022-12-24T01:48:41;9.40;99.90
52615;DHT22;38508;53.158;6.614;2022-12-24T01:53:37;9.50;99.90
52615;DHT22;38508;53.158;6.614;2022-12-24T01:56:04;9.50;99.90
52615;DHT22;38508;53.158;6.614;2022-12-24T01:58:31;9.50;99.90
52615;DHT22;38508;53.158;6.614;2022-12-24T02:00:58;9.50;99.90
52615;DHT22;38508;53.158;6.614;2022-12-24T02:03:23;9.50;99.90
52615;DHT22;38508;53.158;6.614;2022-12-24T02:05:54;9.60;99.90
52615;DHT22;38508;53.158;6.614;2022-12-24T02:08:21;9.60;99.90
52615;DHT22;38508;53.158;6.614;2022-12-24T02:10:47;9.60;99.90
52615;DHT22;38508;53.158;6.614;2022-12-24T02:13:16;9.60;99.90
52615;DHT22;38508;53.158;6.614;2022-12-24T02:19:09;9.60;99.90
52615;DHT22;38508;53.158;6.614;2022-12-24T02:22:16;9.60;99.90
52615;DHT22;38508;53.158;6.614;2022-12-24T02:28:03;9.70;99.90
52615;DHT22;38508;53.158;6.614;2022-12-24T02:30:47;9.70;99.90
52615;DHT22;38508;53.158;6.614;2022-12-24T02:36:15;9.60;99.90
52615;DHT22;38508;53.158;6.614;2022-12-24T02:39:08;9.60;99.90
52615;DHT22;38508;53.158;6.614;2022-12-24T02:41:39;9.60;99.90
52615;DHT22;38508;53.158;6.614;2022-12-24T02:44:27;9.70;99.90
52615;DHT22;38508;53.158;6.614;2022-12-24T02:46:56;9.60;99.90
52615;DHT22;38508;53.158;6.614;2022-12-24T02:49:23;9.60;99.90
52615;DHT22;38508;53.158;6.614;2022-12-24T02:51:49;9.60;99.90
52615;DHT22;38508;53.158;6.614;2022-12-24T02:54:15;9.50;99.90
52615;DHT22;38508;53.158;6.614;2022-12-24T02:59:33;9.70;99.90
52615;DHT22;38508;53.158;6.614;2022-12-24T03:07:21;9.50;99.90
52615;DHT22;38508;53.158;6.614;2022-12-24T03:10:00;9.30;99.90
52615;DHT22;38508;53.158;6.614;2022-12-24T03:12:33;9.10;99.90
52615;DHT22;38508;53.158;6.614;2022-12-24T03:15:02;9.20;99.90
52615;DHT22;38508;53.158;6.614;2022-12-24T03:17:28;9.30;99.90
52615;DHT22;38508;53.158;6.614;2022-12-24T03:19:55;9.20;99.90
52615;DHT22;38508;53.158;6.614;2022-12-24T03:22:21;9.10;99.90
52615;DHT22;38508;53.158;6.614;2022-12-24T03:24:49;9.00;99.90
52615;DHT22;38508;53.158;6.614;2022-12-24T03:27:15;8.90;99.90
52615;DHT22;38508;53.158;6.614;2022-12-24T03:29:41;8.80;99.90
52615;DHT22;38508;53.158;6.614;2022-12-24T03:32:07;8.70;99.90
52615;DHT22;38508;53.158;6.614;2022-12-24T03:34:33;8.70;99.90
52615;DHT22;38508;53.158;6.614;2022-12-24T03:36:59;8.80;99.90
52615;DHT22;38508;53.158;6.614;2022-12-24T03:39:24;8.80;99.90
52615;DHT22;38508;53.158;6.614;2022-12-24T03:41:50;8.90;99.90
52615;DHT22;38508;53.158;6.614;2022-12-24T03:44:16;8.90;99.90
52615;DHT22;38508;53.158;6.614;2022-12-24T03:46:41;8.90;99.90
52615;DHT22;38508;53.158;6.614;2022-12-24T03:49:07;8.90;99.90
52615;DHT22;38508;53.158;6.614;2022-12-24T03:51:33;8.90;99.90
52615;DHT22;38508;53.158;6.614;2022-12-24T03:53:59;8.90;99.90
52615;DHT22;38508;53.158;6.614;2022-12-24T03:56:25;8.90;99.90
52615;DHT22;38508;53.158;6.614;2022-12-24T03:58:51;8.90;99.90
52615;DHT22;38508;53.158;6.614;2022-12-24T04:01:18;8.90;99.90
52615;DHT22;38508;53.158;6.614;2022-12-24T04:03:44;8.90;99.90
52615;DHT22;38508;53.158;6.614;2022-12-24T04:06:14;8.90;99.90
52615;DHT22;38508;53.158;6.614;2022-12-24T04:08:42;8.80;99.90
52615;DHT22;38508;53.158;6.614;2022-12-24T04:11:10;9.00;99.90
52615;DHT22;38508;53.158;6.614;2022-12-24T04:13:36;8.90;99.90
52615;DHT22;38508;53.158;6.614;2022-12-24T04:16:13;9.00;99.90
52615;DHT22;38508;53.158;6.614;2022-12-24T04:18:39;9.00;99.90
52615;DHT22;38508;53.158;6.614;2022-12-24T04:21:06;9.00;99.90
52615;DHT22;38508;53.158;6.614;2022-12-24T04:23:34;9.00;99.90
52615;DHT22;38508;53.158;6.614;2022-12-24T04:26:02;9.10;99.90
52615;DHT22;38508;53.158;6.614;2022-12-24T04:28:28;9.20;99.90
52615;DHT22;38508;53.158;6.614;2022-12-24T04:31:06;9.20;99.90
52615;DHT22;38508;53.158;6.614;2022-12-24T04:33:32;9.30;99.90
52615;DHT22;38508;53.158;6.614;2022-12-24T04:35:59;9.30;99.90
52615;DHT22;38508;53.158;6.614;2022-12-24T04:38:25;9.30;99.90
52615;DHT22;38508;53.158;6.614;2022-12-24T04:41:02;9.20;99.90
52615;DHT22;38508;53.158;6.614;2022-12-24T04:43:29;9.30;99.90
52615;DHT22;38508;53.158;6.614;2022-12-24T04:45:55;9.20;99.90
52615;DHT22;38508;53.158;6.614;2022-12-24T04:48:21;9.20;99.90
52615;DHT22;38508;53.158;6.614;2022-12-24T04:50:47;9.20;99.90
52615;DHT22;38508;53.158;6.614;2022-12-24T04:53:12;9.30;99.90
52615;DHT22;38508;53.158;6.614;2022-12-24T04:55:48;9.20;99.90
52615;DHT22;38508;53.158;6.614;2022-12-24T04:58:14;9.20;99.90
52615;DHT22;38508;53.158;6.614;2022-12-24T05:00:40;9.10;99.90
52615;DHT22;38508;53.158;6.614;2022-12-24T05:03:05;9.10;99.90
52615;DHT22;38508;53.158;6.614;2022-12-24T05:05:31;9.10;99.90
52615;DHT22;38508;53.158;6.614;2022-12-24T05:07:57;9.10;99.90
52615;DHT22;38508;53.158;6.614;2022-12-24T05:10:22;9.10;99.90
52615;DHT22;38508;53.158;6.614;2022-12-24T05:12:48;8.90;99.90
52615;DHT22;38508;53.158;6.614;2022-12-24T05:15:14;9.00;99.90
52615;DHT22;38508;53.158;6.614;2022-12-24T05:17:39;9.00;99.90
52615;DHT22;38508;53.158;6.614;2022-12-24T05:20:05;9.00;99.90
52615;DHT22;38508;53.158;6.614;2022-12-24T05:22:31;9.00;99.90
52615;DHT22;38508;53.158;6.614;2022-12-24T05:25:15;9.10;99.90
52615;DHT22;38508;53.158;6.614;2022-12-24T05:28:00;9.00;99.90
52615;DHT22;38508;53.158;6.614;2022-12-24T05:30:26;9.10;99.90
52615;DHT22;38508;53.158;6.614;2022-12-24T05:32:51;9.00;99.90
52615;DHT22;38508;53.158;6.614;2022-12-24T05:35:17;9.10;99.90
52615;DHT22;38508;53.158;6.614;2022-12-24T05:37:43;9.00;99.90
52615;DHT22;38508;53.158;6.614;2022-12-24T05:40:09;9.10;99.90
52615;DHT22;38508;53.158;6.614;2022-12-24T05:42:34;9.10;99.90
52615;DHT22;38508;53.158;6.614;2022-12-24T05:45:00;9.20;99.90
52615;DHT22;38508;53.158;6.614;2022-12-24T05:47:26;9.10;99.90
52615;DHT22;38508;53.158;6.614;2022-12-24T05:49:51;9.30;99.90
52615;DHT22;38508;53.158;6.614;2022-12-24T05:52:17;9.30;99.90
52615;DHT22;38508;53.158;6.614;2022-12-24T05:54:43;9.30;99.90
52615;DHT22;38508;53.158;6.614;2022-12-24T05:57:08;9.30;99.90
52615;DHT22;38508;53.158;6.614;2022-12-24T05:59:34;9.40;99.90
52615;DHT22;38508;53.158;6.614;2022-12-24T06:02:00;9.40;99.90
52615;DHT22;38508;53.158;6.614;2022-12-24T06:04:25;9.40;99.90
52615;DHT22;38508;53.158;6.614;2022-12-24T06:06:51;9.40;99.90
52615;DHT22;38508;53.158;6.614;2022-12-24T06:09:17;9.50;99.90
52615;DHT22;38508;53.158;6.614;2022-12-24T06:11:42;9.60;99.90
52615;DHT22;38508;53.158;6.614;2022-12-24T06:14:08;9.70;99.90
52615;DHT22;38508;53.158;6.614;2022-12-24T06:16:34;9.70;99.90
52615;DHT22;38508;53.158;6.614;2022-12-24T06:18:59;9.60;99.90
52615;DHT22;38508;53.158;6.614;2022-12-24T06:21:25;9.50;99.90
52615;DHT22;38508;53.158;6.614;2022-12-24T06:23:52;9.60;99.90
52615;DHT22;38508;53.158;6.614;2022-12-24T06:26:20;9.40;99.90
52615;DHT22;38508;53.158;6.614;2022-12-24T06:28:47;9.40;99.90
52615;DHT22;38508;53.158;6.614;2022-12-24T06:31:15;9.50;99.90
52615;DHT22;38508;53.158;6.614;2022-12-24T06:33:42;9.50;99.90
52615;DHT22;38508;53.158;6.614;2022-12-24T06:36:10;9.40;99.90
52615;DHT22;38508;53.158;6.614;2022-12-24T06:38:37;9.40;99.90
52615;DHT22;38508;53.158;6.614;2022-12-24T06:41:07;9.30;99.90
52615;DHT22;38508;53.158;6.614;2022-12-24T06:43:33;9.40;99.90
52615;DHT22;38508;53.158;6.614;2022-12-24T06:46:00;9.40;99.90
52615;DHT22;38508;53.158;6.614;2022-12-24T06:48:26;9.40;99.90
52615;DHT22;38508;53.158;6.614;2022-12-24T06:50:51;9.40;99.90
52615;DHT22;38508;53.158;6.614;2022-12-24T06:53:17;9.30;99.90
52615;DHT22;38508;53.158;6.614;2022-12-24T06:55:43;9.40;99.90
52615;DHT22;38508;53.158;6.614;2022-12-24T06:58:08;9.30;99.90
52615;DHT22;38508;53.158;6.614;2022-12-24T07:00:34;9.30;99.90
52615;DHT22;38508;53.158;6.614;2022-12-24T07:03:00;9.30;99.90
52615;DHT22;38508;53.158;6.614;2022-12-24T07:05:26;9.30;99.90
52615;DHT22;38508;53.158;6.614;2022-12-24T07:07:52;9.20;99.90
52615;DHT22;38508;53.158;6.614;2022-12-24T07:10:19;9.30;99.90
52615;DHT22;38508;53.158;6.614;2022-12-24T07:12:45;9.30;99.90
52615;DHT22;38508;53.158;6.614;2022-12-24T07:15:11;9.30;99.90
52615;DHT22;38508;53.158;6.614;2022-12-24T07:17:37;9.30;99.90
52615;DHT22;38508;53.158;6.614;2022-12-24T07:20:04;9.20;99.90
52615;DHT22;38508;53.158;6.614;2022-12-24T07:22:30;9.10;99.90
52615;DHT22;38508;53.158;6.614;2022-12-24T07:24:56;9.20;99.90
52615;DHT22;38508;53.158;6.614;2022-12-24T07:27:22;9.20;99.90
52615;DHT22;38508;53.158;6.614;2022-12-24T07:29:47;9.20;99.90
52615;DHT22;38508;53.158;6.614;2022-12-24T07:32:13;9.10;99.90
52615;DHT22;38508;53.158;6.614;2022-12-24T07:34:39;9.20;99.90
52615;DHT22;38508;53.158;6.614;2022-12-24T07:37:05;9.20;99.90
52615;DHT22;38508;53.158;6.614;2022-12-24T07:39:31;9.20;99.90
52615;DHT22;38508;53.158;6.614;2022-12-24T07:41:57;9.20;99.90
52615;DHT22;38508;53.158;6.614;2022-12-24T07:44:22;9.20;99.90
52615;DHT22;38508;53.158;6.614;2022-12-24T07:46:48;9.30;99.90
52615;DHT22;38508;53.158;6.614;2022-12-24T07:49:14;9.30;99.90
52615;DHT22;38508;53.158;6.614;2022-12-24T07:51:39;9.30;99.90
52615;DHT22;38508;53.158;6.614;2022-12-24T07:54:05;9.30;99.90
52615;DHT22;38508;53.158;6.614;2022-12-24T07:56:31;9.30;99.90
52615;DHT22;38508;53.158;6.614;2022-12-24T07:58:57;9.30;99.90
52615;DHT22;38508;53.158;6.614;2022-12-24T08:01:23;9.40;99.90
52615;DHT22;38508;53.158;6.614;2022-12-24T08:03:48;9.50;99.90
52615;DHT22;38508;53.158;6.614;2022-12-24T08:06:19;9.50;99.90
52615;DHT22;38508;53.158;6.614;2022-12-24T08:08:45;9.50;99.90
52615;DHT22;38508;53.158;6.614;2022-12-24T08:11:11;9.60;99.90
52615;DHT22;38508;53.158;6.614;2022-12-24T08:13:37;9.60;99.90
52615;DHT22;38508;53.158;6.614;2022-12-24T08:16:03;9.60;99.90
52615;DHT22;38508;53.158;6.614;2022-12-24T08:18:29;9.60;99.90
52615;DHT22;38508;53.158;6.614;2022-12-24T08:20:55;9.70;99.90
52615;DHT22;38508;53.158;6.614;2022-12-24T08:23:22;9.60;99.90
52615;DHT22;38508;53.158;6.614;2022-12-24T08:25:48;9.70;99.90
52615;DHT22;38508;53.158;6.614;2022-12-24T08:28:16;9.80;99.90
52615;DHT22;38508;53.158;6.614;2022-12-24T08:30:42;9.80;99.90
52615;DHT22;38508;53.158;6.614;2022-12-24T08:33:08;9.90;99.90
52615;DHT22;38508;53.158;6.614;2022-12-24T08:35:33;9.90;99.90
52615;DHT22;38508;53.158;6.614;2022-12-24T08:37:59;9.90;99.90
52615;DHT22;38508;53.158;6.614;2022-12-24T08:40:25;9.80;99.90
52615;DHT22;38508;53.158;6.614;2022-12-24T08:42:51;9.80;99.90
52615;DHT22;38508;53.158;6.614;2022-12-24T08:45:17;9.90;99.90
52615;DHT22;38508;53.158;6.614;2022-12-24T08:47:43;9.90;99.90
52615;DHT22;38508;53.158;6.614;2022-12-24T08:50:09;9.90;99.90
52615;DHT22;38508;53.158;6.614;2022-12-24T08:52:35;9.90;99.90
52615;DHT22;38508;53.158;6.614;2022-12-24T08:55:01;10.00;99.90
52615;DHT22;38508;53.158;6.614;2022-12-24T08:57:27;9.90;99.90
52615;DHT22;38508;53.158;6.614;2022-12-24T08:59:52;9.90;99.90
52615;DHT22;38508;53.158;6.614;2022-12-24T09:02:18;9.80;99.90
52615;DHT22;38508;53.158;6.614;2022-12-24T09:04:44;9.90;99.90
52615;DHT22;38508;53.158;6.614;2022-12-24T09:07:10;9.70;99.90
52615;DHT22;38508;53.158;6.614;2022-12-24T09:09:36;9.80;99.90
52615;DHT22;38508;53.158;6.614;2022-12-24T09:12:06;9.80;99.90
52615;DHT22;38508;53.158;6.614;2022-12-24T09:14:32;9.70;99.90
52615;DHT22;38508;53.158;6.614;2022-12-24T09:16:59;9.70;99.90
52615;DHT22;38508;53.158;6.614;2022-12-24T09:19:26;9.80;99.90
52615;DHT22;38508;53.158;6.614;2022-12-24T09:21:51;9.80;99.90
52615;DHT22;38508;53.158;6.614;2022-12-24T09:24:17;9.80;99.90
52615;DHT22;38508;53.158;6.614;2022-12-24T09:26:43;9.90;99.90
52615;DHT22;38508;53.158;6.614;2022-12-24T09:29:10;9.90;99.90
52615;DHT22;38508;53.158;6.614;2022-12-24T09:31:36;9.80;99.90
52615;DHT22;38508;53.158;6.614;2022-12-24T09:34:02;9.80;99.90
52615;DHT22;38508;53.158;6.614;2022-12-24T09:36:27;9.80;99.90
52615;DHT22;38508;53.158;6.614;2022-12-24T09:38:53;9.70;99.90
52615;DHT22;38508;53.158;6.614;2022-12-24T09:41:29;9.90;99.90
52615;DHT22;38508;53.158;6.614;2022-12-24T09:44:22;9.90;99.90
52615;DHT22;38508;53.158;6.614;2022-12-24T09:46:52;9.90;99.90
52615;DHT22;38508;53.158;6.614;2022-12-24T09:49:24;9.90;99.90
52615;DHT22;38508;53.158;6.614;2022-12-24T09:51:56;9.90;99.90
52615;DHT22;38508;53.158;6.614;2022-12-24T09:54:35;9.90;99.90
52615;DHT22;38508;53.158;6.614;2022-12-24T09:57:07;9.90;99.90
52615;DHT22;38508;53.158;6.614;2022-12-24T09:59:46;9.90;99.90
52615;DHT22;38508;53.158;6.614;2022-12-24T10:02:17;9.90;99.90
52615;DHT22;38508;53.158;6.614;2022-12-24T10:04:45;10.00;99.90
52615;DHT22;38508;53.158;6.614;2022-12-24T10:26:44;10.40;99.90
52615;DHT22;38508;53.158;6.614;2022-12-24T10:29:17;10.40;99.90
52615;DHT22;38508;53.158;6.614;2022-12-24T10:32:10;10.40;99.90
52615;DHT22;38508;53.158;6.614;2022-12-24T10:34:59;10.40;99.90
52615;DHT22;38508;53.158;6.614;2022-12-24T10:37:28;10.50;99.90
52615;DHT22;38508;53.158;6.614;2022-12-24T10:39:54;10.60;99.90
52615;DHT22;38508;53.158;6.614;2022-12-24T10:42:23;10.50;99.90
52615;DHT22;38508;53.158;6.614;2022-12-24T10:44:54;10.60;99.90
52615;DHT22;38508;53.158;6.614;2022-12-24T10:47:22;10.70;99.90
52615;DHT22;38508;53.158;6.614;2022-12-24T10:50:04;10.80;99.90
52615;DHT22;38508;53.158;6.614;2022-12-24T10:52:36;10.90;99.90
52615;DHT22;38508;53.158;6.614;2022-12-24T10:55:22;10.70;99.90
52615;DHT22;38508;53.158;6.614;2022-12-24T10:58:04;10.70;99.90
52615;DHT22;38508;53.158;6.614;2022-12-24T11:00:31;10.70;99.90
52615;DHT22;38508;53.158;6.614;2022-12-24T11:03:24;10.60;99.90
52615;DHT22;38508;53.158;6.614;2022-12-24T11:06:04;10.70;99.90
52615;DHT22;38508;53.158;6.614;2022-12-24T11:08:31;10.80;99.90
52615;DHT22;38508;53.158;6.614;2022-12-24T11:11:01;10.70;99.90
52615;DHT22;38508;53.158;6.614;2022-12-24T11:18:58;10.70;99.90
52615;DHT22;38508;53.158;6.614;2022-12-24T11:21:29;10.70;99.90
52615;DHT22;38508;53.158;6.614;2022-12-24T11:23:58;10.80;99.90
52615;DHT22;38508;53.158;6.614;2022-12-24T11:26:28;10.80;99.90
52615;DHT22;38508;53.158;6.614;2022-12-24T11:29:22;10.80;99.90
52615;DHT22;38508;53.158;6.614;2022-12-24T11:31:49;10.80;99.90
52615;DHT22;38508;53.158;6.614;2022-12-24T11:36:49;10.50;99.90
52615;DHT22;38508;53.158;6.614;2022-12-24T11:39:21;10.50;99.90
52615;DHT22;38508;53.158;6.614;2022-12-24T11:41:52;10.50;99.90
52615;DHT22;38508;53.158;6.614;2022-12-24T11:44:25;10.40;99.90
52615;DHT22;38508;53.158;6.614;2022-12-24T11:46:52;10.30;99.90
52615;DHT22;38508;53.158;6.614;2022-12-24T11:52:22;10.50;99.90
52615;DHT22;38508;53.158;6.614;2022-12-24T11:57:47;10.50;99.90
52615;DHT22;38508;53.158;6.614;2022-12-24T12:00:14;10.30;99.90
52615;DHT22;38508;53.158;6.614;2022-12-24T12:02:42;10.40;99.90
52615;DHT22;38508;53.158;6.614;2022-12-24T12:05:15;10.40;99.90
52615;DHT22;38508;53.158;6.614;2022-12-24T12:07:42;10.50;99.90
52615;DHT22;38508;53.158;6.614;2022-12-24T12:13:05;10.50;99.90
52615;DHT22;38508;53.158;6.614;2022-12-24T12:15:39;10.50;99.90
52615;DHT22;38508;53.158;6.614;2022-12-24T12:18:15;10.40;99.90
52615;DHT22;38508;53.158;6.614;2022-12-24T12:21:01;10.30;99.90
52615;DHT22;38508;53.158;6.614;2022-12-24T12:25:59;10.30;99.90
52615;DHT22;38508;53.158;6.614;2022-12-24T12:28:45;10.20;99.90
52615;DHT22;38508;53.158;6.614;2022-12-24T12:31:21;10.00;99.90
52615;DHT22;38508;53.158;6.614;2022-12-24T12:34:13;9.90;99.90
52615;DHT22;38508;53.158;6.614;2022-12-24T12:36:47;9.90;99.90
52615;DHT22;38508;53.158;6.614;2022-12-24T12:39:14;10.10;99.90
52615;DHT22;38508;53.158;6.614;2022-12-24T12:42:01;10.20;99.90
52615;DHT22;38508;53.158;6.614;2022-12-24T12:44:53;10.20;99.90
52615;DHT22;38508;53.158;6.614;2022-12-24T12:52:57;10.20;99.90
52615;DHT22;38508;53.158;6.614;2022-12-24T12:58:24;10.40;99.90
52615;DHT22;38508;53.158;6.614;2022-12-24T13:00:55;10.50;99.90
52615;DHT22;38508;53.158;6.614;2022-12-24T13:22:25;10.40;99.90
52615;DHT22;38508;53.158;6.614;2022-12-24T13:24:53;10.30;99.90
52615;DHT22;38508;53.158;6.614;2022-12-24T13:27:23;10.30;99.90
52615;DHT22;38508;53.158;6.614;2022-12-24T13:29:52;10.40;99.90
52615;DHT22;38508;53.158;6.614;2022-12-24T13:37:32;10.40;99.90
52615;DHT22;38508;53.158;6.614;2022-12-24T13:50:42;10.50;99.90
52615;DHT22;38508;53.158;6.614;2022-12-24T13:55:56;10.40;99.90
52615;DHT22;38508;53.158;6.614;2022-12-24T13:58:23;10.30;99.90
52615;DHT22;38508;53.158;6.614;2022-12-24T14:06:00;10.40;99.90
52615;DHT22;38508;53.158;6.614;2022-12-24T14:08:30;10.40;99.90
52615;DHT22;38508;53.158;6.614;2022-12-24T14:11:17;10.30;99.90
52615;DHT22;38508;53.158;6.614;2022-12-24T14:19:14;10.30;99.90
52615;DHT22;38508;53.158;6.614;2022-12-24T14:24:26;10.10;99.90
52615;DHT22;38508;53.158;6.614;2022-12-24T14:26:57;10.10;99.90
52615;DHT22;38508;53.158;6.614;2022-12-24T14:29:31;10.10;99.90
52615;DHT22;38508;53.158;6.614;2022-12-24T14:31:59;10.10;99.90
52615;DHT22;38508;53.158;6.614;2022-12-24T14:34:29;10.20;99.90
52615;DHT22;38508;53.158;6.614;2022-12-24T14:36:55;10.20;99.90
52615;DHT22;38508;53.158;6.614;2022-12-24T14:39:30;10.20;99.90
52615;DHT22;38508;53.158;6.614;2022-12-24T14:44:47;10.00;99.90
52615;DHT22;38508;53.158;6.614;2022-12-24T14:47:39;10.00;99.90
52615;DHT22;38508;53.158;6.614;2022-12-24T14:55:55;10.00;99.90
52615;DHT22;38508;53.158;6.614;2022-12-24T14:58:27;9.90;99.90
52615;DHT22;38508;53.158;6.614;2022-12-24T15:01:00;9.90;99.90
52615;DHT22;38508;53.158;6.614;2022-12-24T15:03:30;9.80;99.90
52615;DHT22;38508;53.158;6.614;2022-12-24T15:06:07;9.70;99.90
52615;DHT22;38508;53.158;6.614;2022-12-24T15:08:42;9.70;99.90
52615;DHT22;38508;53.158;6.614;2022-12-24T15:11:15;9.70;99.90
52615;DHT22;38508;53.158;6.614;2022-12-24T15:13:44;9.60;99.90
52615;DHT22;38508;53.158;6.614;2022-12-24T15:16:22;9.60;99.90
52615;DHT22;38508;53.158;6.614;2022-12-24T15:18:53;9.60;99.90
52615;DHT22;38508;53.158;6.614;2022-12-24T15:21:33;9.50;99.90
52615;DHT22;38508;53.158;6.614;2022-12-24T15:23:59;9.50;99.90
52615;DHT22;38508;53.158;6.614;2022-12-24T15:26:28;9.60;99.90
52615;DHT22;38508;53.158;6.614;2022-12-24T15:28:57;9.60;99.90
52615;DHT22;38508;53.158;6.614;2022-12-24T15:31:24;9.50;99.90
52615;DHT22;38508;53.158;6.614;2022-12-24T15:33:52;9.40;99.90
52615;DHT22;38508;53.158;6.614;2022-12-24T15:36:29;9.40;99.90
52615;DHT22;38508;53.158;6.614;2022-12-24T15:38:58;9.60;99.90
52615;DHT22;38508;53.158;6.614;2022-12-24T15:41:28;9.60;99.90
52615;DHT22;38508;53.158;6.614;2022-12-24T15:43:59;9.60;99.90
52615;DHT22;38508;53.158;6.614;2022-12-24T15:46:27;9.50;99.90
52615;DHT22;38508;53.158;6.614;2022-12-24T15:48:55;9.50;99.90
52615;DHT22;38508;53.158;6.614;2022-12-24T15:51:26;9.50;99.90
52615;DHT22;38508;53.158;6.614;2022-12-24T15:53:58;9.30;99.90
52615;DHT22;38508;53.158;6.614;2022-12-24T15:56:41;9.30;99.90
52615;DHT22;38508;53.158;6.614;2022-12-24T16:01:44;9.30;99.90
52615;DHT22;38508;53.158;6.614;2022-12-24T16:04:13;9.30;99.90
52615;DHT22;38508;53.158;6.614;2022-12-24T16:06:57;9.20;99.90
52615;DHT22;38508;53.158;6.614;2022-12-24T16:09:49;9.20;99.90
52615;DHT22;38508;53.158;6.614;2022-12-24T16:12:17;9.20;99.90
52615;DHT22;38508;53.158;6.614;2022-12-24T16:14:56;9.20;99.90
52615;DHT22;38508;53.158;6.614;2022-12-24T16:17:25;9.10;99.90
52615;DHT22;38508;53.158;6.614;2022-12-24T16:19:55;9.00;99.90
52615;DHT22;38508;53.158;6.614;2022-12-24T16:22:23;9.00;99.90
52615;DHT22;38508;53.158;6.614;2022-12-24T16:25:26;8.90;99.90
52615;DHT22;38508;53.158;6.614;2022-12-24T16:27:52;8.80;99.90
52615;DHT22;38508;53.158;6.614;2022-12-24T16:30:19;8.80;99.90
52615;DHT22;38508;53.158;6.614;2022-12-24T16:32:46;8.70;99.90
52615;DHT22;38508;53.158;6.614;2022-12-24T16:35:32;8.70;99.90
52615;DHT22;38508;53.158;6.614;2022-12-24T16:38:01;8.70;99.90
52615;DHT22;38508;53.158;6.614;2022-12-24T16:40:26;8.70;99.90
52615;DHT22;38508;53.158;6.614;2022-12-24T16:42:52;8.60;99.90
52615;DHT22;38508;53.158;6.614;2022-12-24T16:45:37;8.60;99.90
52615;DHT22;38508;53.158;6.614;2022-12-24T16:48:05;8.60;99.90
52615;DHT22;38508;53.158;6.614;2022-12-24T16:50:31;8.70;99.90
52615;DHT22;38508;53.158;6.614;2022-12-24T16:52:57;8.70;99.90
52615;DHT22;38508;53.158;6.614;2022-12-24T16:55:23;8.70;99.90
52615;DHT22;38508;53.158;6.614;2022-12-24T16:57:48;8.80;99.90
52615;DHT22;38508;53.158;6.614;2022-12-24T17:00:20;8.90;99.90
52615;DHT22;38508;53.158;6.614;2022-12-24T17:02:47;8.90;99.90
52615;DHT22;38508;53.158;6.614;2022-12-24T17:05:13;9.00;99.90
52615;DHT22;38508;53.158;6.614;2022-12-24T17:07:39;9.00;99.90
52615;DHT22;38508;53.158;6.614;2022-12-24T17:10:08;9.00;99.90
52615;DHT22;38508;53.158;6.614;2022-12-24T17:12:34;9.10;99.90
52615;DHT22;38508;53.158;6.614;2022-12-24T17:14:59;9.00;99.90
52615;DHT22;38508;53.158;6.614;2022-12-24T17:17:28;8.90;99.90
52615;DHT22;38508;53.158;6.614;2022-12-24T17:19:55;8.90;99.90
52615;DHT22;38508;53.158;6.614;2022-12-24T17:22:21;8.90;99.90
52615;DHT22;38508;53.158;6.614;2022-12-24T17:24:47;8.80;99.90
52615;DHT22;38508;53.158;6.614;2022-12-24T17:27:13;8.80;99.90
52615;DHT22;38508;53.158;6.614;2022-12-24T17:29:39;8.80;99.90
52615;DHT22;38508;53.158;6.614;2022-12-24T17:32:05;8.80;99.90
52615;DHT22;38508;53.158;6.614;2022-12-24T17:34:31;8.90;99.90
52615;DHT22;38508;53.158;6.614;2022-12-24T17:36:56;8.90;99.90
52615;DHT22;38508;53.158;6.614;2022-12-24T17:39:22;9.00;99.90
52615;DHT22;38508;53.158;6.614;2022-12-24T17:41:49;9.00;99.90
52615;DHT22;38508;53.158;6.614;2022-12-24T17:44:15;9.10;99.90
52615;DHT22;38508;53.158;6.614;2022-12-24T17:46:42;9.00;99.90
52615;DHT22;38508;53.158;6.614;2022-12-24T17:49:08;8.90;99.90
52615;DHT22;38508;53.158;6.614;2022-12-24T17:51:34;8.90;99.90
52615;DHT22;38508;53.158;6.614;2022-12-24T17:54:00;8.80;99.90
52615;DHT22;38508;53.158;6.614;2022-12-24T17:56:27;8.70;99.90
52615;DHT22;38508;53.158;6.614;2022-12-24T17:58:53;8.60;99.90
52615;DHT22;38508;53.158;6.614;2022-12-24T18:01:22;8.50;99.90
52615;DHT22;38508;53.158;6.614;2022-12-24T18:03:50;8.50;99.90
52615;DHT22;38508;53.158;6.614;2022-12-24T18:06:19;8.40;99.90
52615;DHT22;38508;53.158;6.614;2022-12-24T18:08:46;8.50;99.90